Time;durP1;ratioP1;P1;durP2;ratioP2;P2;SDS_P1;SDS_P2;PMS_P1;PMS_P2;Temp;Humidity;BMP_temperature;BMP_pressure;BME280_temperature;BME280_humidity;BME280_pressure;Samples;Min_cycle;Max_cycle;Signal;HPM_P1;HPM_P2
2023/10/15 00:00:16;;;;;;;1.75;1.10;;;15.80;39.30;;;;;;5073551;28;20579;-48
2023/10/15 00:02:47;;;;;;;2.55;1.00;;;15.80;39.40;;;;;;5073477;28;20263;-46
2023/10/15 00:05:17;;;;;;;3.67;1.85;;;15.80;39.50;;;;;;5073373;28;20172;-47
2023/10/15 00:07:44;;;;;;;3.90;1.20;;;15.70;38.90;;;;;;5073008;28;20204;-51
2023/10/15 00:10:12;;;;;;;4.70;1.52;;;15.70;39.00;;;;;;5073061;28;20272;-46
2023/10/15 00:12:39;;;;;;;4.38;1.17;;;15.70;39.40;;;;;;5073363;28;20177;-46
2023/10/15 00:15:07;;;;;;;2.50;0.88;;;15.60;39.40;;;;;;5073262;28;20200;-49
2023/10/15 00:17:34;;;;;;;3.95;1.35;;;15.60;39.70;;;;;;5072886;28;20192;-47
2023/10/15 00:20:00;;;;;;;4.88;1.80;;;15.50;39.50;;;;;;5073098;28;20641;-50
2023/10/15 00:22:26;;;;;;;3.90;1.33;;;15.40;39.00;;;;;;5072833;28;20207;-50
2023/10/15 00:24:52;;;;;;;4.72;1.40;;;15.40;39.00;;;;;;5072375;28;20177;-47
2023/10/15 00:27:20;;;;;;;4.33;1.10;;;15.30;39.10;;;;;;5072745;28;20563;-46
2023/10/15 00:29:45;;;;;;;3.88;1.30;;;15.30;39.20;;;;;;5072841;28;20179;-48
2023/10/15 00:32:12;;;;;;;4.63;1.97;;;15.20;39.20;;;;;;5073014;28;20173;-49
2023/10/15 00:34:38;;;;;;;2.70;1.08;;;15.20;39.60;;;;;;5072641;28;20175;-47
2023/10/15 00:37:05;;;;;;;3.07;1.30;;;15.20;39.00;;;;;;5072250;28;20287;-50
2023/10/15 00:39:31;;;;;;;3.97;1.40;;;15.10;39.10;;;;;;5072581;28;20468;-49
2023/10/15 00:41:56;;;;;;;6.03;1.42;;;15.10;39.10;;;;;;5072571;28;20183;-47
2023/10/15 00:44:22;;;;;;;4.70;1.40;;;15.00;39.00;;;;;;5072571;28;20172;-48
2023/10/15 00:46:55;;;;;;;4.87;1.17;;;15.00;39.10;;;;;;5072283;28;20192;-50
2023/10/15 00:49:27;;;;;;;4.00;1.27;;;15.00;39.00;;;;;;5072455;28;20184;-49
2023/10/15 00:51:53;;;;;;;3.85;1.60;;;15.00;39.20;;;;;;5072094;28;20211;-51
2023/10/15 00:54:19;;;;;;;8.20;1.80;;;15.00;39.80;;;;;;5072554;28;20173;-51
2023/10/15 00:56:47;;;;;;;6.47;1.52;;;14.90;39.10;;;;;;5071969;28;20442;-48
2023/10/15 01:02:28;;;;;;;4.43;0.95;;;14.80;39.40;;;;;;5072332;28;20172;-50
2023/10/15 01:04:35;;;;;;;5.50;1.40;;;14.90;39.80;;;;;;5069235;28;20241;-47
2023/10/15 01:07:14;;;;;;;4.45;1.20;;;14.80;39.30;;;;;;5072007;28;20201;-47
2023/10/15 01:09:43;;;;;;;5.65;1.40;;;14.70;39.00;;;;;;5072109;28;20184;-50
2023/10/15 01:14:58;;;;;;;7.10;1.83;;;14.70;39.00;;;;;;5066389;28;20229;-47
2023/10/15 01:17:26;;;;;;;4.50;1.60;;;14.70;39.50;;;;;;5071778;28;20913;-49
2023/10/15 01:19:52;;;;;;;7.70;1.67;;;14.60;38.90;;;;;;5072070;28;20184;-48
2023/10/15 01:22:21;;;;;;;6.60;1.55;;;14.70;39.30;;;;;;5072001;28;20165;-47
2023/10/15 01:24:53;;;;;;;5.90;1.30;;;14.70;40.00;;;;;;5071961;28;20191;-47
2023/10/15 01:27:28;;;;;;;4.40;1.15;;;14.60;39.50;;;;;;5071628;28;20252;-47
2023/10/15 01:29:55;;;;;;;4.82;1.25;;;14.50;39.80;;;;;;5072022;28;20286;-48
2023/10/15 01:32:22;;;;;;;6.93;1.73;;;14.50;39.50;;;;;;5071850;28;20173;-49
2023/10/15 01:34:52;;;;;;;4.90;1.52;;;14.50;40.10;;;;;;5071849;28;20177;-47
2023/10/15 01:39:49;;;;;;;4.72;1.33;;;14.60;40.50;;;;;;5071747;28;20631;-47
2023/10/15 01:43:06;;;;;;;2.78;1.02;;;14.50;40.30;;;;;;5071750;28;20672;-46
2023/10/15 01:50:23;;;;;;;5.00;1.25;;;14.50;40.30;;;;;;5071678;28;20199;-49
2023/10/15 01:52:54;;;;;;;2.72;1.27;;;14.50;40.40;;;;;;5071670;28;20173;-47
2023/10/15 01:55:20;;;;;;;5.47;1.20;;;14.40;39.70;;;;;;5071727;28;20204;-47
2023/10/15 01:57:46;;;;;;;5.70;1.23;;;14.30;39.70;;;;;;5071378;28;20560;-49
2023/10/15 02:00:17;;;;;;;4.22;1.15;;;14.30;40.30;;;;;;5071610;28;20253;-46
2023/10/15 02:02:56;;;;;;;1.20;0.90;;;14.30;40.70;;;;;;5071847;28;20189;-46
2023/10/15 02:05:40;;;;;;;1.30;0.80;;;14.30;40.00;;;;;;5071478;28;20230;-51
2023/10/15 02:08:13;;;;;;;3.05;0.95;;;14.30;40.30;;;;;;5071258;28;20730;-49
2023/10/15 02:10:46;;;;;;;7.95;1.38;;;14.30;39.90;;;;;;5071464;28;20195;-46
2023/10/15 02:13:15;;;;;;;5.53;1.30;;;14.30;39.70;;;;;;5071487;28;20516;-50
2023/10/15 02:15:55;;;;;;;7.43;1.33;;;14.30;40.40;;;;;;5071617;28;20199;-46
2023/10/15 02:18:21;;;;;;;24.42;2.10;;;14.30;39.90;;;;;;5071443;28;20169;-46
2023/10/15 02:23:20;;;;;;;4.15;1.65;;;14.30;40.80;;;;;;5071369;28;20407;-49
2023/10/15 02:25:58;;;;;;;3.35;1.27;;;14.30;40.60;;;;;;5071568;28;20184;-47
2023/10/15 02:28:31;;;;;;;9.07;1.42;;;14.20;39.90;;;;;;5071381;28;20180;-50
2023/10/15 02:33:38;;;;;;;10.48;2.22;;;14.00;40.00;;;;;;5071345;28;20640;-48
2023/10/15 02:36:09;;;;;;;12.00;2.78;;;14.00;39.70;;;;;;5070926;28;20235;-46
2023/10/15 02:38:37;;;;;;;6.88;1.85;;;14.00;40.30;;;;;;5071249;28;20239;-48
2023/10/15 02:41:05;;;;;;;6.80;1.27;;;13.90;40.20;;;;;;5071339;28;20185;-49
2023/10/15 02:43:31;;;;;;;6.95;2.22;;;13.90;40.40;;;;;;5071256;28;20197;-47
2023/10/15 02:46:00;;;;;;;8.32;1.67;;;13.80;40.40;;;;;;5070878;28;20263;-49
2023/10/15 02:48:31;;;;;;;9.93;1.80;;;13.80;40.40;;;;;;5072138;28;20172;-46
2023/10/15 02:51:00;;;;;;;8.70;1.73;;;13.80;40.40;;;;;;5074896;28;20204;-46
2023/10/15 02:53:38;;;;;;;10.10;1.42;;;13.80;40.50;;;;;;5074834;28;20591;-48
2023/10/15 02:56:10;;;;;;;12.40;2.60;;;;;;;;;;5074334;28;20214;-50
2023/10/15 02:58:40;;;;;;;10.82;1.63;;;13.70;40.30;;;;;;5074514;28;20196;-48
2023/10/15 03:01:17;;;;;;;6.55;1.50;;;13.70;40.80;;;;;;5074738;28;20180;-47
2023/10/15 03:03:48;;;;;;;8.57;1.60;;;13.60;40.40;;;;;;5074663;28;20182;-49
2023/10/15 03:06:41;;;;;;;6.15;1.70;;;13.70;40.70;;;;;;5074218;28;20684;-46
2023/10/15 03:09:11;;;;;;;8.05;1.55;;;13.60;40.70;;;;;;5074576;28;20211;-49
2023/10/15 03:11:38;;;;;;;6.85;1.63;;;13.60;40.50;;;;;;5074554;28;20204;-46
2023/10/15 03:14:06;;;;;;;5.70;1.05;;;13.60;41.40;;;;;;5074522;28;20259;-48
2023/10/15 03:16:35;;;;;;;4.13;0.80;;;13.60;41.20;;;;;;5074054;28;20678;-49
2023/10/15 03:19:19;;;;;;;8.13;1.58;;;13.60;41.10;;;;;;5074198;28;20207;-47
2023/10/15 03:21:45;;;;;;;10.15;1.67;;;13.60;40.90;;;;;;5074120;28;20189;-49
2023/10/15 03:24:14;;;;;;;9.88;1.85;;;13.50;40.90;;;;;;5074194;28;20172;-48
2023/10/15 03:26:47;;;;;;;9.35;1.92;;;13.40;41.20;;;;;;5073951;28;20197;-48
2023/10/15 03:29:16;;;;;;;11.05;1.70;;;13.50;41.50;;;;;;5074107;28;20176;-50
2023/10/15 03:31:48;;;;;;;9.55;1.75;;;13.50;41.10;;;;;;5073967;28;20292;-49
2023/10/15 03:34:17;;;;;;;7.47;1.65;;;13.40;41.10;;;;;;5073870;28;20176;-48
2023/10/15 03:36:59;;;;;;;8.77;1.30;;;13.40;41.30;;;;;;5073575;28;20687;-47
2023/10/15 03:39:25;;;;;;;7.32;1.30;;;13.40;41.20;;;;;;5073882;28;20176;-47
2023/10/15 03:42:09;;;;;;;5.95;1.40;;;13.40;41.00;;;;;;5073942;28;20203;-49
2023/10/15 03:44:44;;;;;;;6.90;1.42;;;13.30;41.10;;;;;;5073715;28;20181;-47
2023/10/15 03:47:13;;;;;;;4.70;1.20;;;13.30;41.70;;;;;;5073403;28;20671;-49
2023/10/15 03:49:40;;;;;;;9.00;1.70;;;13.30;41.40;;;;;;5073629;28;20184;-47
2023/10/15 03:52:09;;;;;;;6.40;1.60;;;13.30;42.10;;;;;;5073572;28;20204;-47
2023/10/15 03:54:38;;;;;;;7.95;1.70;;;13.10;41.30;;;;;;5073630;28;20238;-49
2023/10/15 03:57:06;;;;;;;6.38;1.27;;;13.10;42.00;;;;;;5072984;28;20591;-49
2023/10/15 03:59:42;;;;;;;8.80;1.65;;;13.10;41.50;;;;;;5071371;28;20165;-48
2023/10/15 04:02:11;;;;;;;8.23;1.60;;;13.00;41.20;;;;;;5073383;28;20536;-49
2023/10/15 04:04:38;;;;;;;8.07;1.58;;;13.10;41.20;;;;;;5073466;28;20529;-46
2023/10/15 04:07:18;;;;;;;7.95;1.25;;;13.00;41.40;;;;;;5073056;28;20694;-47
2023/10/15 04:09:44;;;;;;;11.07;1.92;;;;;;;;;;5073154;28;20172;-49
2023/10/15 04:12:10;;;;;;;10.93;1.45;;;;;;;;;;5073087;28;20196;-50
2023/10/15 04:14:37;;;;;;;7.88;1.40;;;;;;;;;;5073283;28;20533;-47
2023/10/15 04:17:06;;;;;;;7.25;1.25;;;12.90;40.60;;;;;;5072873;28;20189;-47
2023/10/15 04:19:31;;;;;;;7.15;1.75;;;12.90;41.30;;;;;;5073058;28;20187;-49
2023/10/15 04:22:01;;;;;;;8.53;1.40;;;12.90;40.90;;;;;;5071749;28;20540;-49
2023/10/15 04:24:44;;;;;;;9.38;1.42;;;12.90;41.00;;;;;;5072817;28;20557;-47
2023/10/15 04:27:23;;;;;;;4.35;1.45;;;12.90;40.90;;;;;;5072634;28;20731;-48
2023/10/15 04:29:50;;;;;;;5.85;1.00;;;12.90;41.40;;;;;;5072892;28;20184;-47
2023/10/15 04:32:51;;;;;;;8.85;1.50;;;13.00;41.00;;;;;;5072652;28;20208;-46
2023/10/15 04:35:11;;;;;;;9.20;1.52;;;12.90;40.30;;;;;;5071560;28;20598;-48
2023/10/15 04:37:37;;;;;;;9.43;1.65;;;12.90;40.60;;;;;;5072405;28;20193;-46
2023/10/15 04:40:05;;;;;;;12.82;2.05;;;;;;;;;;5072766;28;20176;-49
2023/10/15 04:42:37;;;;;;;8.27;1.15;;;13.00;40.30;;;;;;5072692;28;20563;-50
2023/10/15 04:47:53;;;;;;;9.38;1.50;;;12.90;40.40;;;;;;5072352;28;20199;-48
2023/10/15 04:50:20;;;;;;;10.02;1.52;;;12.90;40.30;;;;;;5072506;28;20226;-47
2023/10/15 04:52:46;;;;;;;11.00;1.50;;;13.00;40.20;;;;;;5072422;28;20176;-47
2023/10/15 04:55:13;;;;;;;10.40;1.90;;;13.00;40.00;;;;;;5072231;28;20176;-47
2023/10/15 04:57:39;;;;;;;12.75;1.90;;;12.90;40.20;;;;;;5071947;28;20472;-49
2023/10/15 05:00:07;;;;;;;10.43;1.53;;;13.00;40.20;;;;;;5072170;28;20177;-46
2023/10/15 05:02:36;;;;;;;6.80;1.38;;;13.00;40.10;;;;;;5072371;28;20752;-46
2023/10/15 05:05:06;;;;;;;6.43;1.45;;;13.00;40.80;;;;;;5072245;28;20179;-49
2023/10/15 05:07:32;;;;;;;7.57;2.15;;;13.00;40.20;;;;;;5071949;28;20602;-48
2023/10/15 05:09:59;;;;;;;20.63;3.35;;;12.90;40.30;;;;;;5072001;28;20180;-50
2023/10/15 05:12:26;;;;;;;5.60;1.33;;;13.00;41.00;;;;;;5072172;28;20215;-49
2023/10/15 05:14:54;;;;;;;6.78;1.45;;;13.00;40.90;;;;;;5072272;28;20181;-46
2023/10/15 05:17:20;;;;;;;5.97;1.37;;;13.10;40.20;;;;;;5071910;28;20323;-49
2023/10/15 05:19:54;;;;;;;4.23;1.17;;;13.10;40.80;;;;;;5072100;28;20734;-50
2023/10/15 05:22:20;;;;;;;4.30;1.30;;;13.10;40.80;;;;;;5072073;28;20901;-48
2023/10/15 05:24:46;;;;;;;4.55;1.52;;;13.10;40.40;;;;;;5071933;28;20537;-47
2023/10/15 05:27:12;;;;;;;4.20;1.37;;;13.10;40.60;;;;;;5071881;28;20188;-50
2023/10/15 05:29:39;;;;;;;8.70;1.52;;;13.00;40.10;;;;;;5071994;28;20222;-50
2023/10/15 05:32:06;;;;;;;4.50;1.30;;;13.00;40.70;;;;;;5071815;28;20247;-47
2023/10/15 05:34:32;;;;;;;3.03;1.23;;;13.00;40.40;;;;;;5071802;28;20264;-51
2023/10/15 05:36:57;;;;;;;5.00;1.47;;;13.00;40.90;;;;;;5071492;28;20195;-53
2023/10/15 05:39:24;;;;;;;3.30;1.00;;;12.90;40.60;;;;;;5071788;28;20172;-46
2023/10/15 05:41:51;;;;;;;7.00;1.95;;;12.90;40.70;;;;;;5071695;28;20180;-48
2023/10/15 05:44:18;;;;;;;3.40;1.35;;;12.90;40.80;;;;;;5071929;28;20226;-48
2023/10/15 05:46:46;;;;;;;4.68;1.50;;;12.90;41.10;;;;;;5071547;28;20196;-49
2023/10/15 05:49:12;;;;;;;3.47;1.48;;;12.90;40.80;;;;;;5071630;28;20180;-48
2023/10/15 05:51:38;;;;;;;2.35;1.58;;;12.90;40.60;;;;;;5071538;28;20721;-49
2023/10/15 05:54:04;;;;;;;2.57;1.40;;;12.90;41.00;;;;;;5071956;28;20184;-49
2023/10/15 05:56:30;;;;;;;2.20;0.87;;;12.90;40.90;;;;;;5071274;28;20231;-47
2023/10/15 05:58:57;;;;;;;4.20;1.40;;;12.90;41.00;;;;;;5071501;28;20445;-49
2023/10/15 06:01:23;;;;;;;3.05;1.35;;;12.90;41.30;;;;;;5071730;28;20415;-46
2023/10/15 06:03:50;;;;;;;4.25;1.27;;;12.90;41.20;;;;;;5071634;28;20181;-47
2023/10/15 06:06:15;;;;;;;4.80;1.45;;;12.60;40.80;;;;;;5071187;28;20224;-48
2023/10/15 06:08:43;;;;;;;7.87;1.70;;;12.90;40.60;;;;;;5071565;28;20261;-48
2023/10/15 06:11:09;;;;;;;3.08;0.93;;;12.90;40.80;;;;;;5071584;28;20576;-49
2023/10/15 06:13:34;;;;;;;4.77;1.50;;;12.90;40.60;;;;;;5071353;28;20177;-47
2023/10/15 06:16:01;;;;;;;9.70;4.80;;;12.90;40.20;;;;;;5071296;28;20173;-47
2023/10/15 06:18:27;;;;;;;11.38;1.65;;;12.90;40.80;;;;;;5071526;28;20195;-47
2023/10/15 06:20:54;;;;;;;5.93;1.43;;;13.00;40.30;;;;;;5071271;28;20644;-47
2023/10/15 06:23:19;;;;;;;6.00;1.52;;;13.00;40.40;;;;;;5072467;28;20192;-49
2023/10/15 06:25:45;;;;;;;4.20;1.20;;;13.20;39.80;;;;;;5075172;28;20586;-50
2023/10/15 06:28:14;;;;;;;6.67;2.00;;;13.30;39.60;;;;;;5075219;28;20275;-49
2023/10/15 06:30:44;;;;;;;4.72;1.20;;;13.40;39.70;;;;;;5075175;28;20202;-46
2023/10/15 06:33:10;;;;;;;5.03;1.70;;;13.50;39.30;;;;;;5075133;28;20173;-51
2023/10/15 06:35:35;;;;;;;5.00;1.50;;;13.50;39.10;;;;;;5074849;28;20942;-46
2023/10/15 06:38:01;;;;;;;4.87;1.50;;;13.70;38.80;;;;;;5074917;28;20457;-49
2023/10/15 06:40:28;;;;;;;3.90;1.57;;;13.80;38.60;;;;;;5075052;28;20567;-47
2023/10/15 06:43:00;;;;;;;7.53;1.70;;;13.90;38.60;;;;;;5074798;28;20449;-47
2023/10/15 06:45:27;;;;;;;161.27;122.25;;;;;;;;;;5074806;28;20671;-49
2023/10/15 06:47:53;;;;;;;72.22;64.35;;;14.20;36.50;;;;;;5074481;28;20188;-50
2023/10/15 06:50:19;;;;;;;112.05;78.18;;;14.20;36.30;;;;;;5074729;28;20238;-47
2023/10/15 06:52:46;;;;;;;48.07;28.27;;;;;;;;;;5074895;28;20172;-47
2023/10/15 06:55:13;;;;;;;55.60;39.10;;;;;;;;;;5074524;28;20921;-48
2023/10/15 06:57:40;;;;;;;89.35;62.60;;;14.30;36.50;;;;;;5074399;28;20208;-48
2023/10/15 07:00:10;;;;;;;125.30;78.20;;;14.30;36.70;;;;;;5074595;28;20176;-49
2023/10/15 07:02:36;;;;;;;50.58;21.50;;;;;;;;;;5074420;28;20177;-49
2023/10/15 07:05:03;;;;;;;94.32;50.45;;;;;;;;;;5074508;28;20175;-48
2023/10/15 07:07:29;;;;;;;19.38;7.13;;;;;;;;;;5072910;28;20711;-46
2023/10/15 07:09:55;;;;;;;192.32;102.10;;;;;;;;;;5074364;28;20199;-50
2023/10/15 07:12:22;;;;;;;89.07;26.65;;;;;;;;;;5074277;28;20207;-49
2023/10/15 07:14:48;;;;;;;36.28;10.60;;;14.60;35.20;;;;;;5074361;28;20196;-51
2023/10/15 07:17:15;;;;;;;22.27;2.10;;;14.70;35.90;;;;;;5073889;28;20211;-49
2023/10/15 07:19:41;;;;;;;56.00;42.17;;;;;;;;;;5074183;28;20255;-45
2023/10/15 07:22:07;;;;;;;63.08;23.80;;;14.60;35.10;;;;;;5074354;28;20204;-48
2023/10/15 07:24:33;;;;;;;18.83;1.87;;;;;;;;;;5074284;28;20652;-48
2023/10/15 07:27:01;;;;;;;14.23;1.42;;;;;;;;;;5073748;28;20188;-47
2023/10/15 07:29:28;;;;;;;19.80;2.00;;;14.50;35.80;;;;;;5073992;28;20183;-46
2023/10/15 07:31:54;;;;;;;15.82;1.60;;;14.50;34.80;;;;;;5074120;28;20208;-47
2023/10/15 07:34:22;;;;;;;15.23;1.75;;;14.40;35.40;;;;;;5073960;28;20256;-49
2023/10/15 07:36:51;;;;;;;16.33;2.03;;;14.40;35.40;;;;;;5073629;28;20271;-48
2023/10/15 07:39:17;;;;;;;20.25;2.50;;;14.30;35.80;;;;;;5073945;28;20180;-49
2023/10/15 07:41:43;;;;;;;17.80;2.05;;;;;;;;;;5073747;28;20683;-49
2023/10/15 07:44:10;;;;;;;18.38;2.08;;;;;;;;;;5073649;28;20641;-48
2023/10/15 07:46:36;;;;;;;14.60;1.73;;;;;;;;;;5073633;28;20196;-47
2023/10/15 07:49:03;;;;;;;13.48;1.65;;;14.70;35.40;;;;;;5073801;28;20187;-50
2023/10/15 07:51:29;;;;;;;16.00;1.95;;;14.60;34.60;;;;;;5073692;28;20204;-47
2023/10/15 07:53:55;;;;;;;15.50;2.05;;;14.70;34.70;;;;;;5073697;28;20176;-48
2023/10/15 07:56:21;;;;;;;19.37;2.50;;;14.70;34.70;;;;;;5073088;28;20208;-50
2023/10/15 07:58:50;;;;;;;19.58;2.25;;;;;;;;;;5072276;28;20173;-50
2023/10/15 08:01:16;;;;;;;11.82;1.77;;;;;;;;;;5073427;28;20184;-49
2023/10/15 08:03:42;;;;;;;11.90;1.85;;;14.60;35.00;;;;;;5073541;28;20298;-47
2023/10/15 08:06:08;;;;;;;27.80;3.23;;;14.70;35.40;;;;;;5073214;28;20627;-50
2023/10/15 08:08:37;;;;;;;14.27;1.88;;;14.90;35.00;;;;;;5073324;28;20230;-48
2023/10/15 08:11:02;;;;;;;16.70;2.03;;;15.00;35.50;;;;;;5072994;28;20312;-48
2023/10/15 08:13:28;;;;;;;19.67;2.30;;;14.90;34.10;;;;;;5073114;28;20171;-50
2023/10/15 08:15:54;;;;;;;15.13;1.87;;;;;;;;;;5073079;28;20406;-50
2023/10/15 08:18:20;;;;;;;14.30;2.03;;;14.70;34.60;;;;;;5073061;28;20460;-47
2023/10/15 08:20:46;;;;;;;16.60;2.30;;;;;;;;;;5072950;28;20177;-50
2023/10/15 08:23:13;;;;;;;15.63;1.73;;;14.80;34.90;;;;;;5072956;28;20644;-47
2023/10/15 08:25:39;;;;;;;21.60;2.50;;;14.90;35.40;;;;;;5072754;28;20210;-48
2023/10/15 08:28:05;;;;;;;17.47;2.07;;;15.00;34.50;;;;;;5072556;28;20196;-49
2023/10/15 08:30:32;;;;;;;19.10;2.40;;;15.00;34.70;;;;;;5072650;28;20446;-49
2023/10/15 08:32:58;;;;;;;18.67;2.72;;;15.00;33.90;;;;;;5073005;28;20399;-46
2023/10/15 08:35:25;;;;;;;14.45;2.00;;;;;;;;;;5072781;28;20181;-48
2023/10/15 08:37:51;;;;;;;12.02;1.88;;;;;;;;;;5072497;28;20216;-50
2023/10/15 08:40:17;;;;;;;16.67;2.85;;;14.90;33.50;;;;;;5072542;28;20176;-47
2023/10/15 08:42:48;;;;;;;28.17;3.00;;;14.70;33.90;;;;;;5072548;28;20165;-48
2023/10/15 08:45:21;;;;;;;8.15;1.33;;;14.70;35.20;;;;;;5072430;28;20548;-51
2023/10/15 08:47:48;;;;;;;11.02;1.73;;;14.80;35.00;;;;;;5072017;28;20275;-47
2023/10/15 08:50:16;;;;;;;13.48;1.92;;;;;;;;;;5072431;28;20258;-48
2023/10/15 08:52:44;;;;;;;13.93;2.08;;;14.80;34.40;;;;;;5072464;28;20248;-50
2023/10/15 08:55:10;;;;;;;19.83;2.65;;;;;;;;;;5072251;28;20679;-47
2023/10/15 08:57:37;;;;;;;10.98;1.55;;;;;;;;;;5072266;28;20197;-47
2023/10/15 09:00:04;;;;;;;10.35;1.40;;;15.30;33.00;;;;;;5072234;28;20168;-50
2023/10/15 09:02:31;;;;;;;12.77;1.95;;;;;;;;;;5072390;28;20181;-49
2023/10/15 09:04:57;;;;;;;9.95;1.40;;;15.30;32.20;;;;;;5072160;28;20612;-46
2023/10/15 09:07:24;;;;;;;11.60;2.07;;;15.20;34.40;;;;;;5071929;28;20230;-50
2023/10/15 09:09:49;;;;;;;17.42;2.17;;;15.30;33.90;;;;;;5072007;28;20184;-49
2023/10/15 09:12:15;;;;;;;8.83;1.80;;;15.40;33.60;;;;;;5071975;28;20254;-49
2023/10/15 09:14:45;;;;;;;13.30;1.87;;;;;;;;;;5072054;28;20184;-50
2023/10/15 09:17:17;;;;;;;14.30;2.17;;;;;;;;;;5071839;28;20419;-49
2023/10/15 09:19:47;;;;;;;13.80;1.70;;;;;;;;;;5071913;28;20670;-47
2023/10/15 09:22:15;;;;;;;9.73;1.40;;;;;;;;;;5071885;28;20284;-50
2023/10/15 09:24:45;;;;;;;13.93;2.17;;;;;;;;;;5071878;28;20180;-48
2023/10/15 09:27:13;;;;;;;12.88;2.05;;;15.90;32.90;;;;;;5071826;28;20239;-47
2023/10/15 09:29:40;;;;;;;13.95;2.10;;;;;;;;;;5072010;28;20215;-49
2023/10/15 09:32:06;;;;;;;15.38;2.10;;;15.70;33.00;;;;;;5071747;28;20200;-47
2023/10/15 09:34:37;;;;;;;14.33;2.00;;;15.60;32.30;;;;;;5071707;28;20173;-46
2023/10/15 09:37:05;;;;;;;12.98;2.22;;;;;;;;;;5071695;28;20434;-46
2023/10/15 09:39:31;;;;;;;14.40;2.20;;;;;;;;;;5071908;28;20518;-50
2023/10/15 09:42:02;;;;;;;11.43;1.77;;;15.20;33.20;;;;;;5071871;28;20176;-51
2023/10/15 09:44:28;;;;;;;12.00;2.05;;;15.10;33.00;;;;;;5071785;28;20664;-47
2023/10/15 09:46:54;;;;;;;13.77;2.22;;;14.90;33.40;;;;;;5071534;28;20203;-47
2023/10/15 09:49:21;;;;;;;15.33;2.27;;;14.70;33.10;;;;;;5071677;28;20176;-50
2023/10/15 09:51:47;;;;;;;19.88;2.83;;;14.70;34.20;;;;;;5071591;28;20291;-47
2023/10/15 09:54:14;;;;;;;11.13;1.95;;;14.70;34.00;;;;;;5071786;28;20172;-48
2023/10/15 09:56:45;;;;;;;7.35;1.23;;;;;;;;;;5071299;28;20568;-49
2023/10/15 09:59:14;;;;;;;10.77;1.63;;;;;;;;;;5074220;28;20179;-47
2023/10/15 10:01:44;;;;;;;11.60;2.22;;;;;;;;;;5075605;28;20204;-49
2023/10/15 10:04:19;;;;;;;10.38;1.70;;;;;;;;;;5075909;28;20181;-49
2023/10/15 10:06:47;;;;;;;13.10;2.05;;;14.70;34.90;;;;;;5075392;28;20671;-47
2023/10/15 10:09:25;;;;;;;10.30;2.22;;;14.70;34.60;;;;;;5075609;28;20176;-47
2023/10/15 10:12:11;;;;;;;12.13;1.73;;;14.60;35.00;;;;;;5075481;28;20282;-49
2023/10/15 10:15:22;;;;;;;10.43;1.70;;;14.50;36.00;;;;;;5075682;28;20215;-49
2023/10/15 10:17:49;;;;;;;10.18;1.48;;;14.50;36.60;;;;;;5075285;28;20188;-47
2023/10/15 10:20:15;;;;;;;10.48;2.05;;;14.60;36.50;;;;;;5075376;28;20318;-47
2023/10/15 10:22:41;;;;;;;14.68;2.30;;;14.70;36.50;;;;;;5075204;28;20183;-51
2023/10/15 10:25:11;;;;;;;9.45;1.75;;;14.80;36.70;;;;;;5075207;28;20704;-48
2023/10/15 10:27:43;;;;;;;9.13;1.70;;;14.90;36.50;;;;;;5075111;28;20630;-49
2023/10/15 10:30:41;;;;;;;13.20;1.95;;;14.90;36.20;;;;;;5075013;28;20184;-50
2023/10/15 10:33:09;;;;;;;14.60;2.15;;;14.90;35.60;;;;;;5012891;28;20209;-47
2023/10/15 10:35:45;;;;;;;7.45;1.30;;;14.70;35.20;;;;;;5012917;28;20185;-49
2023/10/15 10:38:18;;;;;;;13.00;1.92;;;14.60;35.00;;;;;;5012563;28;20253;-47
2023/10/15 10:41:03;;;;;;;9.55;2.05;;;14.60;35.00;;;;;;5012970;28;20257;-52
2023/10/15 10:43:29;;;;;;;11.35;1.88;;;14.60;35.00;;;;;;5012903;28;20190;-47
2023/10/15 10:46:00;;;;;;;7.00;1.47;;;14.60;35.70;;;;;;5012620;28;20175;-51
2023/10/15 10:48:30;;;;;;;9.93;1.92;;;14.60;35.20;;;;;;5012817;28;20413;-48
2023/10/15 10:51:11;;;;;;;9.10;1.50;;;14.70;35.80;;;;;;5012595;28;20206;-49
2023/10/15 10:53:58;;;;;;;7.85;1.73;;;14.80;35.30;;;;;;5012600;28;20170;-48
2023/10/15 10:56:44;;;;;;;10.98;1.80;;;14.80;34.50;;;;;;4995480;28;20210;-49
2023/10/15 10:59:11;;;;;;;10.40;2.05;;;14.70;34.90;;;;;;5012482;28;20585;-47
2023/10/15 11:01:41;;;;;;;9.32;1.45;;;14.90;34.70;;;;;;5012505;28;20214;-47
2023/10/15 11:04:11;;;;;;;9.68;1.50;;;14.90;34.40;;;;;;5012429;28;20186;-49
2023/10/15 11:06:39;;;;;;;9.15;1.77;;;15.00;35.10;;;;;;5012135;28;20199;-47
2023/10/15 11:09:23;;;;;;;8.77;1.33;;;15.10;34.60;;;;;;5033341;28;20184;-47
2023/10/15 11:11:51;;;;;;;11.10;1.85;;;15.10;34.80;;;;;;5074416;28;20204;-50
2023/10/15 11:14:22;;;;;;;9.65;1.75;;;15.10;32.90;;;;;;5074359;28;20187;-50
2023/10/15 11:16:50;;;;;;;10.40;1.85;;;15.10;34.90;;;;;;5073963;28;20196;-46
2023/10/15 11:19:23;;;;;;;10.60;1.75;;;15.20;34.50;;;;;;5074231;28;20259;-48
2023/10/15 11:21:51;;;;;;;13.30;2.08;;;15.20;34.20;;;;;;5074140;28;20181;-50
2023/10/15 11:24:20;;;;;;;10.05;1.67;;;15.20;33.60;;;;;;5074275;28;20195;-46
2023/10/15 11:26:46;;;;;;;13.88;2.00;;;15.30;32.20;;;;;;5073818;28;20197;-49
2023/10/15 11:29:14;;;;;;;13.40;2.30;;;15.40;33.70;;;;;;5073909;28;20647;-47
2023/10/15 11:31:44;;;;;;;11.23;2.33;;;15.30;32.80;;;;;;5074094;28;20219;-48
2023/10/15 11:34:20;;;;;;;13.30;2.33;;;15.30;32.90;;;;;;5074138;28;20194;-48
2023/10/15 11:36:49;;;;;;;9.68;1.60;;;15.30;33.40;;;;;;5073677;28;20706;-47
2023/10/15 11:39:25;;;;;;;13.75;2.83;;;14.20;33.60;;;;;;5073868;28;20291;-47
2023/10/15 11:41:57;;;;;;;10.63;2.08;;;15.30;35.40;;;;;;5073824;28;20177;-49
2023/10/15 11:44:30;;;;;;;8.95;1.63;;;15.30;37.60;;;;;;5073733;28;20173;-47
2023/10/15 11:47:00;;;;;;;12.77;1.85;;;15.20;37.30;;;;;;5073630;28;20699;-48
2023/10/15 11:49:27;;;;;;;13.60;2.28;;;15.20;37.60;;;;;;5073625;28;20188;-49
2023/10/15 11:51:56;;;;;;;6.30;1.65;;;15.10;37.40;;;;;;5073596;28;20207;-48
2023/10/15 11:54:29;;;;;;;13.10;2.05;;;15.10;38.60;;;;;;5073897;28;20265;-49
2023/10/15 11:56:59;;;;;;;10.80;1.95;;;14.90;37.30;;;;;;5073248;28;20220;-48
2023/10/15 11:59:26;;;;;;;9.15;1.55;;;14.80;37.00;;;;;;5073597;28;20176;-47
2023/10/15 12:01:53;;;;;;;12.50;1.90;;;14.70;37.50;;;;;;5073406;28;20188;-49
2023/10/15 12:04:19;;;;;;;10.77;1.65;;;14.70;38.20;;;;;;5073486;28;20180;-49
2023/10/15 12:06:46;;;;;;;12.45;2.35;;;14.70;37.40;;;;;;5073060;28;21083;-51
2023/10/15 12:09:24;;;;;;;11.93;2.03;;;14.80;38.60;;;;;;5073256;28;20184;-51
2023/10/15 12:11:51;;;;;;;9.40;1.50;;;14.90;38.10;;;;;;5073177;28;20201;-47
2023/10/15 12:14:17;;;;;;;8.82;1.40;;;14.90;37.50;;;;;;5073318;28;20164;-50
2023/10/15 12:16:44;;;;;;;15.45;2.42;;;15.10;38.20;;;;;;5072893;28;20683;-46
2023/10/15 12:19:10;;;;;;;9.38;1.88;;;15.20;39.10;;;;;;5073096;28;20177;-47
2023/10/15 12:21:39;;;;;;;10.10;1.77;;;15.20;38.10;;;;;;5072300;28;20774;-51
2023/10/15 12:24:07;;;;;;;8.70;1.88;;;15.20;37.80;;;;;;5073187;28;20181;-48
2023/10/15 12:26:33;;;;;;;10.80;1.90;;;15.30;38.10;;;;;;5072741;28;20200;-46
2023/10/15 12:28:59;;;;;;;11.27;1.70;;;15.40;38.20;;;;;;5073126;28;20188;-49
2023/10/15 12:31:26;;;;;;;8.37;1.40;;;15.60;38.70;;;;;;5072884;28;20203;-51
2023/10/15 12:33:51;;;;;;;14.18;2.60;;;15.80;37.40;;;;;;5072775;28;20172;-46
2023/10/15 12:36:17;;;;;;;9.83;1.63;;;16.00;37.50;;;;;;5072700;28;20636;-49
2023/10/15 12:38:43;;;;;;;16.17;2.20;;;16.00;36.80;;;;;;5072958;28;20180;-50
2023/10/15 12:41:10;;;;;;;9.03;1.80;;;16.10;37.20;;;;;;5072667;28;20582;-47
2023/10/15 12:43:37;;;;;;;13.20;2.17;;;16.10;36.80;;;;;;5072695;28;20433;-47
2023/10/15 12:46:03;;;;;;;30.20;4.70;;;16.00;36.80;;;;;;5072324;28;20207;-50
2023/10/15 12:48:29;;;;;;;14.52;2.17;;;16.00;36.80;;;;;;5072363;28;20176;-46
2023/10/15 12:50:56;;;;;;;12.07;2.50;;;16.00;37.10;;;;;;5072295;28;20212;-52
2023/10/15 12:53:23;;;;;;;13.20;2.30;;;16.00;36.10;;;;;;5072428;28;20770;-50
2023/10/15 12:55:49;;;;;;;7.78;1.75;;;16.00;36.00;;;;;;5072299;28;20193;-47
2023/10/15 12:58:15;;;;;;;12.27;2.03;;;16.10;36.00;;;;;;5072160;28;20196;-47
2023/10/15 13:00:48;;;;;;;11.95;1.77;;;16.40;35.50;;;;;;5072304;28;20229;-50
2023/10/15 13:03:15;;;;;;;20.23;2.63;;;17.00;34.20;;;;;;5072337;28;20185;-50
2023/10/15 13:05:41;;;;;;;15.95;2.08;;;17.40;33.60;;;;;;5072256;28;20180;-48
2023/10/15 13:08:07;;;;;;;14.33;1.90;;;17.50;31.80;;;;;;5072195;28;20255;-48
2023/10/15 13:10:33;;;;;;;12.77;1.80;;;18.20;31.50;;;;;;5072090;28;20406;-50
2023/10/15 13:12:59;;;;;;;12.00;1.57;;;;;;;;;;5072191;28;20253;-49
2023/10/15 13:15:25;;;;;;;17.40;2.38;;;17.50;30.20;;;;;;5072019;28;20824;-47
2023/10/15 13:17:54;;;;;;;13.70;1.75;;;17.50;30.60;;;;;;5071861;28;20257;-49
2023/10/15 13:20:23;;;;;;;8.57;1.38;;;17.10;29.80;;;;;;5071933;28;20636;-47
2023/10/15 13:22:49;;;;;;;12.38;1.58;;;;;;;;;;5072139;28;20234;-48
2023/10/15 13:25:15;;;;;;;12.13;2.15;;;16.50;30.80;;;;;;5071979;28;20256;-51